sensor_id;sensor_type;location;lat;lon;timestamp;pressure;altitude;pressure_sealevel;temperature;humidity
38400;BME280;24180;42.676;23.320;2023-03-20T00:00:20;95100.69;;;5.41;100.00
38400;BME280;24180;42.676;23.320;2023-03-20T00:02:47;95098.44;;;5.24;100.00
38400;BME280;24180;42.676;23.320;2023-03-20T00:05:20;95082.28;;;5.22;100.00
38400;BME280;24180;42.676;23.320;2023-03-20T00:07:49;95052.13;;;5.00;100.00
38400;BME280;24180;42.676;23.320;2023-03-20T00:10:18;95075.63;;;5.19;100.00
38400;BME280;24180;42.676;23.320;2023-03-20T00:12:46;95047.22;;;4.97;100.00
38400;BME280;24180;42.676;23.320;2023-03-20T00:15:29;95097.31;;;5.28;100.00
38400;BME280;24180;42.676;23.320;2023-03-20T00:17:55;95085.38;;;5.02;100.00
38400;BME280;24180;42.676;23.320;2023-03-20T00:20:21;95087.00;;;4.90;100.00
38400;BME280;24180;42.676;23.320;2023-03-20T00:22:47;95082.50;;;4.94;100.00
38400;BME280;24180;42.676;23.320;2023-03-20T00:25:14;95084.34;;;4.92;100.00
38400;BME280;24180;42.676;23.320;2023-03-20T00:27:41;95079.63;;;4.86;100.00
38400;BME280;24180;42.676;23.320;2023-03-20T00:30:33;95081.38;;;4.85;100.00
38400;BME280;24180;42.676;23.320;2023-03-20T00:32:58;95064.63;;;4.80;100.00
38400;BME280;24180;42.676;23.320;2023-03-20T00:35:27;95084.06;;;4.96;100.00
38400;BME280;24180;42.676;23.320;2023-03-20T00:37:53;95079.13;;;4.81;100.00
38400;BME280;24180;42.676;23.320;2023-03-20T00:40:20;95068.41;;;4.74;100.00
38400;BME280;24180;42.676;23.320;2023-03-20T00:42:49;95049.84;;;4.70;100.00
38400;BME280;24180;42.676;23.320;2023-03-20T00:45:18;95068.44;;;4.87;100.00
38400;BME280;24180;42.676;23.320;2023-03-20T00:47:48;95072.88;;;4.85;100.00
38400;BME280;24180;42.676;23.320;2023-03-20T00:50:19;95074.41;;;4.87;100.00
38400;BME280;24180;42.676;23.320;2023-03-20T00:52:48;95079.63;;;4.86;100.00
38400;BME280;24180;42.676;23.320;2023-03-20T00:55:14;95072.25;;;4.81;100.00
38400;BME280;24180;42.676;23.320;2023-03-20T00:57:43;95071.28;;;4.69;100.00
38400;BME280;24180;42.676;23.320;2023-03-20T01:00:24;95074.59;;;4.71;100.00
38400;BME280;24180;42.676;23.320;2023-03-20T01:02:53;95048.00;;;4.60;100.00
38400;BME280;24180;42.676;23.320;2023-03-20T01:05:19;95063.25;;;4.61;100.00
38400;BME280;24180;42.676;23.320;2023-03-20T01:07:45;95067.91;;;4.56;100.00
38400;BME280;24180;42.676;23.320;2023-03-20T01:10:11;95034.31;;;4.34;100.00
38400;BME280;24180;42.676;23.320;2023-03-20T01:12:41;95052.69;;;4.53;100.00
38400;BME280;24180;42.676;23.320;2023-03-20T01:15:18;95055.38;;;4.52;100.00
38400;BME280;24180;42.676;23.320;2023-03-20T01:17:44;95056.06;;;4.54;100.00
38400;BME280;24180;42.676;23.320;2023-03-20T01:20:21;95056.41;;;4.49;100.00
38400;BME280;24180;42.676;23.320;2023-03-20T01:22:46;95028.34;;;4.21;100.00
38400;BME280;24180;42.676;23.320;2023-03-20T01:25:12;95059.22;;;4.32;100.00
38400;BME280;24180;42.676;23.320;2023-03-20T01:27:38;95041.81;;;4.37;100.00
38400;BME280;24180;42.676;23.320;2023-03-20T01:30:15;95047.53;;;4.28;100.00
38400;BME280;24180;42.676;23.320;2023-03-20T01:32:40;95030.69;;;4.24;100.00
38400;BME280;24180;42.676;23.320;2023-03-20T01:35:11;95047.72;;;4.25;100.00
38400;BME280;24180;42.676;23.320;2023-03-20T01:37:37;95047.94;;;4.35;100.00
38400;BME280;24180;42.676;23.320;2023-03-20T01:40:03;95047.13;;;4.34;100.00
38400;BME280;24180;42.676;23.320;2023-03-20T01:42:35;95027.22;;;4.25;100.00
38400;BME280;24180;42.676;23.320;2023-03-20T01:45:00;95055.34;;;4.39;100.00
38400;BME280;24180;42.676;23.320;2023-03-20T01:47:27;95061.91;;;4.43;100.00
38400;BME280;24180;42.676;23.320;2023-03-20T01:52:43;95045.75;;;4.16;100.00
38400;BME280;24180;42.676;23.320;2023-03-20T01:55:09;95071.38;;;4.16;100.00
38400;BME280;24180;42.676;23.320;2023-03-20T01:57:35;95065.13;;;4.20;100.00
38400;BME280;24180;42.676;23.320;2023-03-20T02:00:08;95065.50;;;4.14;100.00
38400;BME280;24180;42.676;23.320;2023-03-20T02:02:37;95066.91;;;4.05;100.00
38400;BME280;24180;42.676;23.320;2023-03-20T02:05:07;95045.22;;;4.11;100.00
38400;BME280;24180;42.676;23.320;2023-03-20T02:07:35;95062.03;;;4.15;100.00
38400;BME280;24180;42.676;23.320;2023-03-20T02:10:11;95055.69;;;3.94;100.00
38400;BME280;24180;42.676;23.320;2023-03-20T02:12:38;95053.59;;;4.00;100.00
38400;BME280;24180;42.676;23.320;2023-03-20T02:15:05;95055.31;;;4.00;100.00
38400;BME280;24180;42.676;23.320;2023-03-20T02:17:31;95035.19;;;3.94;100.00
38400;BME280;24180;42.676;23.320;2023-03-20T02:20:11;95048.06;;;4.06;100.00
38400;BME280;24180;42.676;23.320;2023-03-20T02:38:57;95070.22;;;4.07;100.00
38400;BME280;24180;42.676;23.320;2023-03-20T02:41:35;95029.94;;;3.83;100.00
38400;BME280;24180;42.676;23.320;2023-03-20T02:44:30;95048.50;;;3.86;100.00
38400;BME280;24180;42.676;23.320;2023-03-20T02:47:14;95054.16;;;3.64;100.00
38400;BME280;24180;42.676;23.320;2023-03-20T02:50:08;95047.09;;;3.68;100.00
38400;BME280;24180;42.676;23.320;2023-03-20T02:53:03;95039.84;;;3.74;100.00
38400;BME280;24180;42.676;23.320;2023-03-20T02:56:16;95025.78;;;3.67;100.00
38400;BME280;24180;42.676;23.320;2023-03-20T03:01:10;94993.47;;;3.38;100.00
38400;BME280;24180;42.676;23.320;2023-03-20T03:03:43;95033.56;;;3.66;100.00
38400;BME280;24180;42.676;23.320;2023-03-20T03:06:25;95032.91;;;3.76;100.00
38400;BME280;24180;42.676;23.320;2023-03-20T03:11:51;95035.19;;;3.67;100.00
38400;BME280;24180;42.676;23.320;2023-03-20T03:17:09;95007.38;;;3.34;100.00
38400;BME280;24180;42.676;23.320;2023-03-20T03:19:37;95041.34;;;3.50;100.00
38400;BME280;24180;42.676;23.320;2023-03-20T03:22:06;95038.72;;;3.52;100.00
38400;BME280;24180;42.676;23.320;2023-03-20T03:24:35;94993.31;;;3.27;100.00
38400;BME280;24180;42.676;23.320;2023-03-20T03:27:03;95016.22;;;3.43;100.00
38400;BME280;24180;42.676;23.320;2023-03-20T03:29:33;95034.41;;;3.52;100.00
38400;BME280;24180;42.676;23.320;2023-03-20T03:32:02;95031.84;;;3.52;100.00
38400;BME280;24180;42.676;23.320;2023-03-20T03:34:30;95038.03;;;3.62;100.00
38400;BME280;24180;42.676;23.320;2023-03-20T03:37:09;95036.22;;;3.64;100.00
38400;BME280;24180;42.676;23.320;2023-03-20T03:47:46;95036.31;;;3.63;100.00
38400;BME280;24180;42.676;23.320;2023-03-20T03:50:22;95011.75;;;3.46;100.00
38400;BME280;24180;42.676;23.320;2023-03-20T03:52:53;95030.53;;;3.33;100.00
38400;BME280;24180;42.676;23.320;2023-03-20T03:55:24;95031.88;;;3.38;100.00
38400;BME280;24180;42.676;23.320;2023-03-20T03:58:11;95024.13;;;3.25;100.00
38400;BME280;24180;42.676;23.320;2023-03-20T04:00:41;95028.13;;;3.44;100.00
38400;BME280;24180;42.676;23.320;2023-03-20T04:03:09;95007.66;;;3.29;100.00
38400;BME280;24180;42.676;23.320;2023-03-20T04:05:36;95023.09;;;3.42;100.00
38400;BME280;24180;42.676;23.320;2023-03-20T04:08:05;95004.31;;;3.15;100.00
38400;BME280;24180;42.676;23.320;2023-03-20T04:10:32;95026.03;;;3.36;100.00
38400;BME280;24180;42.676;23.320;2023-03-20T04:12:57;94998.00;;;3.06;100.00
38400;BME280;24180;42.676;23.320;2023-03-20T04:15:23;94975.59;;;3.10;100.00
38400;BME280;24180;42.676;23.320;2023-03-20T04:17:48;95026.56;;;3.41;100.00
38400;BME280;24180;42.676;23.320;2023-03-20T04:20:14;95020.72;;;3.39;100.00
38400;BME280;24180;42.676;23.320;2023-03-20T04:22:40;95003.28;;;3.32;100.00
38400;BME280;24180;42.676;23.320;2023-03-20T04:25:08;95005.38;;;3.39;100.00
38400;BME280;24180;42.676;23.320;2023-03-20T04:27:34;95007.66;;;3.44;100.00
38400;BME280;24180;42.676;23.320;2023-03-20T04:30:00;95009.09;;;3.48;100.00
38400;BME280;24180;42.676;23.320;2023-03-20T04:32:25;95010.91;;;3.46;100.00
38400;BME280;24180;42.676;23.320;2023-03-20T04:34:51;95021.63;;;3.52;100.00
38400;BME280;24180;42.676;23.320;2023-03-20T04:37:17;95019.16;;;3.51;100.00
38400;BME280;24180;42.676;23.320;2023-03-20T04:39:42;95013.53;;;3.58;100.00
38400;BME280;24180;42.676;23.320;2023-03-20T04:42:08;94996.50;;;3.30;100.00
38400;BME280;24180;42.676;23.320;2023-03-20T04:44:34;94995.13;;;3.39;100.00
38400;BME280;24180;42.676;23.320;2023-03-20T04:46:59;95030.06;;;3.67;100.00
38400;BME280;24180;42.676;23.320;2023-03-20T04:49:25;95045.50;;;3.53;100.00
38400;BME280;24180;42.676;23.320;2023-03-20T04:51:51;95042.09;;;3.52;100.00
38400;BME280;24180;42.676;23.320;2023-03-20T04:54:16;95041.00;;;3.56;100.00
38400;BME280;24180;42.676;23.320;2023-03-20T04:56:42;95020.28;;;3.33;100.00
38400;BME280;24180;42.676;23.320;2023-03-20T04:59:07;95024.94;;;3.26;100.00
38400;BME280;24180;42.676;23.320;2023-03-20T05:01:32;95059.22;;;3.23;100.00
38400;BME280;24180;42.676;23.320;2023-03-20T05:03:58;95026.97;;;2.93;100.00
38400;BME280;24180;42.676;23.320;2023-03-20T05:06:29;95019.56;;;3.02;100.00
38400;BME280;24180;42.676;23.320;2023-03-20T05:08:56;95055.09;;;3.35;100.00
38400;BME280;24180;42.676;23.320;2023-03-20T05:11:27;95053.72;;;3.44;100.00
38400;BME280;24180;42.676;23.320;2023-03-20T05:13:52;95051.25;;;3.42;100.00
38400;BME280;24180;42.676;23.320;2023-03-20T05:16:18;95034.06;;;3.44;100.00
38400;BME280;24180;42.676;23.320;2023-03-20T05:18:43;95050.75;;;3.64;100.00
38400;BME280;24180;42.676;23.320;2023-03-20T05:21:08;95041.16;;;3.67;100.00
38400;BME280;24180;42.676;23.320;2023-03-20T05:23:34;95054.25;;;3.90;100.00
38400;BME280;24180;42.676;23.320;2023-03-20T05:26:00;95061.75;;;3.93;100.00
38400;BME280;24180;42.676;23.320;2023-03-20T05:28:26;95067.56;;;4.09;100.00
38400;BME280;24180;42.676;23.320;2023-03-20T05:30:51;95068.81;;;4.16;100.00
38400;BME280;24180;42.676;23.320;2023-03-20T05:33:17;95036.81;;;3.82;100.00
38400;BME280;24180;42.676;23.320;2023-03-20T05:35:42;95078.31;;;4.14;100.00
38400;BME280;24180;42.676;23.320;2023-03-20T05:38:07;95061.34;;;4.25;100.00
38400;BME280;24180;42.676;23.320;2023-03-20T05:40:33;95040.22;;;4.22;100.00
38400;BME280;24180;42.676;23.320;2023-03-20T05:42:58;95051.88;;;4.40;100.00
38400;BME280;24180;42.676;23.320;2023-03-20T05:45:23;95054.34;;;4.54;100.00
38400;BME280;24180;42.676;23.320;2023-03-20T05:47:49;95052.31;;;4.59;100.00
38400;BME280;24180;42.676;23.320;2023-03-20T05:50:15;95070.00;;;4.89;100.00
38400;BME280;24180;42.676;23.320;2023-03-20T05:52:40;95079.25;;;5.04;100.00
38400;BME280;24180;42.676;23.320;2023-03-20T05:55:06;95056.03;;;4.93;100.00
38400;BME280;24180;42.676;23.320;2023-03-20T05:57:31;95051.91;;;5.03;100.00
38400;BME280;24180;42.676;23.320;2023-03-20T05:59:57;95060.34;;;5.05;100.00
38400;BME280;24180;42.676;23.320;2023-03-20T06:02:22;95086.28;;;5.39;100.00
38400;BME280;24180;42.676;23.320;2023-03-20T06:04:47;95084.25;;;5.44;100.00
38400;BME280;24180;42.676;23.320;2023-03-20T06:07:13;95072.75;;;5.49;100.00
38400;BME280;24180;42.676;23.320;2023-03-20T06:09:39;95076.28;;;5.72;100.00
38400;BME280;24180;42.676;23.320;2023-03-20T06:12:04;95049.91;;;5.57;100.00
38400;BME280;24180;42.676;23.320;2023-03-20T06:14:30;95052.19;;;5.49;100.00
38400;BME280;24180;42.676;23.320;2023-03-20T06:16:55;95051.25;;;5.50;100.00
38400;BME280;24180;42.676;23.320;2023-03-20T06:19:21;95085.94;;;5.81;100.00
38400;BME280;24180;42.676;23.320;2023-03-20T06:21:48;95060.50;;;5.65;100.00
38400;BME280;24180;42.676;23.320;2023-03-20T06:24:14;95079.75;;;5.84;100.00
38400;BME280;24180;42.676;23.320;2023-03-20T06:26:39;95058.69;;;5.79;100.00
38400;BME280;24180;42.676;23.320;2023-03-20T06:29:05;95089.25;;;6.07;100.00
38400;BME280;24180;42.676;23.320;2023-03-20T06:31:30;95090.81;;;6.09;100.00
38400;BME280;24180;42.676;23.320;2023-03-20T06:33:56;95091.88;;;6.18;100.00
38400;BME280;24180;42.676;23.320;2023-03-20T06:36:22;95092.06;;;6.28;100.00
38400;BME280;24180;42.676;23.320;2023-03-20T06:38:47;95069.97;;;6.25;100.00
38400;BME280;24180;42.676;23.320;2023-03-20T06:41:13;95078.94;;;6.43;100.00
38400;BME280;24180;42.676;23.320;2023-03-20T06:43:38;95101.09;;;6.57;100.00
38400;BME280;24180;42.676;23.320;2023-03-20T06:46:05;95064.69;;;6.50;100.00
38400;BME280;24180;42.676;23.320;2023-03-20T06:48:31;95074.22;;;6.61;100.00
38400;BME280;24180;42.676;23.320;2023-03-20T06:50:56;95043.22;;;6.63;100.00
38400;BME280;24180;42.676;23.320;2023-03-20T06:53:22;95072.34;;;6.98;100.00
38400;BME280;24180;42.676;23.320;2023-03-20T06:55:48;95057.59;;;7.11;100.00
38400;BME280;24180;42.676;23.320;2023-03-20T06:58:14;95077.06;;;7.37;100.00
38400;BME280;24180;42.676;23.320;2023-03-20T07:00:39;95058.78;;;7.29;100.00
38400;BME280;24180;42.676;23.320;2023-03-20T07:03:05;95063.25;;;7.49;100.00
38400;BME280;24180;42.676;23.320;2023-03-20T07:05:30;95073.44;;;7.62;100.00
38400;BME280;24180;42.676;23.320;2023-03-20T07:07:57;95071.06;;;7.81;100.00
38400;BME280;24180;42.676;23.320;2023-03-20T07:10:22;95070.22;;;7.92;100.00
38400;BME280;24180;42.676;23.320;2023-03-20T07:12:48;95047.59;;;7.95;100.00
38400;BME280;24180;42.676;23.320;2023-03-20T07:15:15;95076.25;;;8.24;100.00
38400;BME280;24180;42.676;23.320;2023-03-20T07:17:41;95071.19;;;8.45;100.00
38400;BME280;24180;42.676;23.320;2023-03-20T07:20:06;95062.56;;;8.56;100.00
38400;BME280;24180;42.676;23.320;2023-03-20T07:22:32;95036.09;;;8.42;100.00
38400;BME280;24180;42.676;23.320;2023-03-20T07:24:58;95047.22;;;8.75;100.00
38400;BME280;24180;42.676;23.320;2023-03-20T07:27:24;95057.44;;;8.97;100.00
38400;BME280;24180;42.676;23.320;2023-03-20T07:29:50;95060.03;;;8.97;100.00
38400;BME280;24180;42.676;23.320;2023-03-20T07:32:16;95045.59;;;8.95;100.00
38400;BME280;24180;42.676;23.320;2023-03-20T07:34:42;95022.47;;;8.93;100.00
38400;BME280;24180;42.676;23.320;2023-03-20T07:37:07;95041.59;;;9.11;100.00
38400;BME280;24180;42.676;23.320;2023-03-20T07:39:33;95049.91;;;9.15;100.00
38400;BME280;24180;42.676;23.320;2023-03-20T07:41:58;95039.56;;;9.15;100.00
38400;BME280;24180;42.676;23.320;2023-03-20T07:44:24;95051.88;;;9.22;100.00
38400;BME280;24180;42.676;23.320;2023-03-20T07:46:49;95063.47;;;9.28;100.00
38400;BME280;24180;42.676;23.320;2023-03-20T07:49:16;95068.34;;;9.52;100.00
38400;BME280;24180;42.676;23.320;2023-03-20T07:51:49;95048.78;;;9.59;100.00
38400;BME280;24180;42.676;23.320;2023-03-20T07:54:15;95071.09;;;9.90;100.00
38400;BME280;24180;42.676;23.320;2023-03-20T07:56:41;95051.00;;;9.73;100.00
38400;BME280;24180;42.676;23.320;2023-03-20T07:59:07;95074.22;;;10.03;100.00
38400;BME280;24180;42.676;23.320;2023-03-20T08:01:32;95065.53;;;10.04;100.00
38400;BME280;24180;42.676;23.320;2023-03-20T08:03:58;95036.91;;;9.96;100.00
38400;BME280;24180;42.676;23.320;2023-03-20T08:06:24;95063.69;;;10.25;100.00
38400;BME280;24180;42.676;23.320;2023-03-20T08:08:49;95046.25;;;10.18;100.00
38400;BME280;24180;42.676;23.320;2023-03-20T08:11:17;95069.16;;;10.42;100.00
38400;BME280;24180;42.676;23.320;2023-03-20T08:13:43;95069.16;;;10.51;100.00
38400;BME280;24180;42.676;23.320;2023-03-20T08:16:09;95062.63;;;10.57;100.00
38400;BME280;24180;42.676;23.320;2023-03-20T08:18:34;95056.66;;;10.66;100.00
38400;BME280;24180;42.676;23.320;2023-03-20T08:21:00;95048.19;;;10.64;100.00
38400;BME280;24180;42.676;23.320;2023-03-20T08:23:25;95043.53;;;10.77;100.00
38400;BME280;24180;42.676;23.320;2023-03-20T08:25:52;95036.72;;;10.95;100.00
38400;BME280;24180;42.676;23.320;2023-03-20T08:28:18;95062.44;;;11.16;100.00
38400;BME280;24180;42.676;23.320;2023-03-20T08:30:44;95042.41;;;11.08;100.00
38400;BME280;24180;42.676;23.320;2023-03-20T08:33:10;95059.16;;;11.23;100.00
38400;BME280;24180;42.676;23.320;2023-03-20T08:35:36;95066.22;;;11.41;100.00
38400;BME280;24180;42.676;23.320;2023-03-20T08:38:01;95059.47;;;11.57;100.00
38400;BME280;24180;42.676;23.320;2023-03-20T08:40:27;95057.25;;;11.72;98.48
38400;BME280;24180;42.676;23.320;2023-03-20T08:42:54;95057.25;;;11.72;98.96
38400;BME280;24180;42.676;23.320;2023-03-20T08:45:20;95059.59;;;11.75;97.07
38400;BME280;24180;42.676;23.320;2023-03-20T08:47:49;95043.34;;;11.73;95.59
38400;BME280;24180;42.676;23.320;2023-03-20T08:50:15;95035.34;;;11.84;94.46
38400;BME280;24180;42.676;23.320;2023-03-20T08:52:41;95052.09;;;11.99;94.67
38400;BME280;24180;42.676;23.320;2023-03-20T08:55:12;95033.38;;;11.96;93.62
38400;BME280;24180;42.676;23.320;2023-03-20T08:57:40;95055.97;;;12.13;93.51
38400;BME280;24180;42.676;23.320;2023-03-20T09:00:07;95043.59;;;12.25;93.27
38400;BME280;24180;42.676;23.320;2023-03-20T09:02:33;95031.34;;;12.17;92.64
38400;BME280;24180;42.676;23.320;2023-03-20T09:04:59;95028.63;;;12.18;91.60
38400;BME280;24180;42.676;23.320;2023-03-20T09:07:25;95027.88;;;12.26;91.80
38400;BME280;24180;42.676;23.320;2023-03-20T09:09:50;95040.38;;;12.58;90.52
38400;BME280;24180;42.676;23.320;2023-03-20T09:12:16;95044.94;;;12.64;88.96
38400;BME280;24180;42.676;23.320;2023-03-20T09:14:41;95034.41;;;12.65;88.92
38400;BME280;24180;42.676;23.320;2023-03-20T09:17:07;95017.06;;;12.66;89.20
38400;BME280;24180;42.676;23.320;2023-03-20T09:19:33;95031.97;;;12.82;87.23
38400;BME280;24180;42.676;23.320;2023-03-20T09:21:59;95032.53;;;12.93;88.87
38400;BME280;24180;42.676;23.320;2023-03-20T09:24:25;95030.13;;;13.00;87.06
38400;BME280;24180;42.676;23.320;2023-03-20T09:26:51;95029.78;;;13.12;87.15
38400;BME280;24180;42.676;23.320;2023-03-20T09:29:17;95008.25;;;13.02;86.77
38400;BME280;24180;42.676;23.320;2023-03-20T09:31:42;95012.44;;;13.21;86.71
38400;BME280;24180;42.676;23.320;2023-03-20T09:34:07;94995.25;;;13.28;84.32
38400;BME280;24180;42.676;23.320;2023-03-20T09:36:33;95016.50;;;13.49;82.56
38400;BME280;24180;42.676;23.320;2023-03-20T09:38:59;94992.31;;;13.57;82.53
38400;BME280;24180;42.676;23.320;2023-03-20T09:41:25;94991.78;;;13.79;82.38
38400;BME280;24180;42.676;23.320;2023-03-20T09:44:34;95013.22;;;14.23;79.43
38400;BME280;24180;42.676;23.320;2023-03-20T09:52:28;94981.22;;;15.12;72.24
38400;BME280;24180;42.676;23.320;2023-03-20T09:54:57;94969.94;;;15.82;69.22
38400;BME280;24180;42.676;23.320;2023-03-20T09:57:32;94956.84;;;17.56;62.43
38400;BME280;24180;42.676;23.320;2023-03-20T10:00:03;94951.53;;;19.49;51.90
38400;BME280;24180;42.676;23.320;2023-03-20T10:03:08;94948.38;;;20.68;45.81
38400;BME280;24180;42.676;23.320;2023-03-20T10:05:41;94919.81;;;20.91;43.62
38400;BME280;24180;42.676;23.320;2023-03-20T10:08:11;94934.56;;;20.40;43.74
38400;BME280;24180;42.676;23.320;2023-03-20T10:10:46;94929.34;;;21.19;43.39
38400;BME280;24180;42.676;23.320;2023-03-20T10:19:31;94915.41;;;25.31;34.47
38400;BME280;24180;42.676;23.320;2023-03-20T10:24:46;94901.88;;;26.87;31.28
38400;BME280;24180;42.676;23.320;2023-03-20T10:27:35;94914.13;;;27.77;30.65
38400;BME280;24180;42.676;23.320;2023-03-20T10:32:47;94903.81;;;28.99;28.08
38400;BME280;24180;42.676;23.320;2023-03-20T10:38:25;94907.03;;;29.28;27.02
38400;BME280;24180;42.676;23.320;2023-03-20T10:40:55;94909.59;;;29.97;26.37
38400;BME280;24180;42.676;23.320;2023-03-20T10:43:27;94862.84;;;31.02;25.42
38400;BME280;24180;42.676;23.320;2023-03-20T10:46:01;94891.69;;;31.76;24.09
38400;BME280;24180;42.676;23.320;2023-03-20T10:48:32;94877.56;;;31.25;24.59
38400;BME280;24180;42.676;23.320;2023-03-20T10:51:01;94849.72;;;30.65;24.21
38400;BME280;24180;42.676;23.320;2023-03-20T10:53:31;94882.09;;;31.19;23.45
38400;BME280;24180;42.676;23.320;2023-03-20T10:56:04;94872.50;;;31.08;23.55
38400;BME280;24180;42.676;23.320;2023-03-20T10:58:36;94875.09;;;30.78;22.98
38400;BME280;24180;42.676;23.320;2023-03-20T11:01:03;94850.53;;;30.81;23.72
38400;BME280;24180;42.676;23.320;2023-03-20T11:03:31;94850.88;;;32.04;22.16
38400;BME280;24180;42.676;23.320;2023-03-20T11:06:16;94864.25;;;32.14;21.70
38400;BME280;24180;42.676;23.320;2023-03-20T11:08:47;94844.59;;;31.65;22.58
38400;BME280;24180;42.676;23.320;2023-03-20T11:11:13;94848.94;;;31.00;22.58
38400;BME280;24180;42.676;23.320;2023-03-20T11:13:45;94826.41;;;31.56;22.89
38400;BME280;24180;42.676;23.320;2023-03-20T11:18:40;94836.59;;;34.12;20.25
38400;BME280;24180;42.676;23.320;2023-03-20T11:21:14;94819.94;;;35.03;19.70
38400;BME280;24180;42.676;23.320;2023-03-20T11:23:40;94814.31;;;35.51;19.50
38400;BME280;24180;42.676;23.320;2023-03-20T11:26:37;94828.22;;;35.85;18.80
38400;BME280;24180;42.676;23.320;2023-03-20T11:29:06;94831.78;;;36.08;19.06
38400;BME280;24180;42.676;23.320;2023-03-20T11:31:34;94761.97;;;36.56;18.51
38400;BME280;24180;42.676;23.320;2023-03-20T11:34:09;94794.53;;;37.18;18.05
38400;BME280;24180;42.676;23.320;2023-03-20T11:36:35;94788.81;;;36.39;18.68
38400;BME280;24180;42.676;23.320;2023-03-20T11:39:12;94794.28;;;33.99;19.36
38400;BME280;24180;42.676;23.320;2023-03-20T11:41:47;94804.47;;;31.34;20.73
38400;BME280;24180;42.676;23.320;2023-03-20T11:44:28;94789.44;;;29.97;21.53
38400;BME280;24180;42.676;23.320;2023-03-20T11:47:09;94771.31;;;29.37;21.96
38400;BME280;24180;42.676;23.320;2023-03-20T11:49:54;94775.75;;;27.33;23.59
38400;BME280;24180;42.676;23.320;2023-03-20T11:52:22;94769.22;;;26.19;25.19
38400;BME280;24180;42.676;23.320;2023-03-20T11:54:56;94762.81;;;26.03;25.87
38400;BME280;24180;42.676;23.320;2023-03-20T11:57:40;94777.34;;;24.75;27.25
38400;BME280;24180;42.676;23.320;2023-03-20T12:00:27;94754.84;;;23.41;28.16
38400;BME280;24180;42.676;23.320;2023-03-20T12:02:52;94762.34;;;23.08;28.76
38400;BME280;24180;42.676;23.320;2023-03-20T12:05:35;94766.38;;;22.67;29.20
38400;BME280;24180;42.676;23.320;2023-03-20T12:08:23;94758.69;;;21.85;29.82
38400;BME280;24180;42.676;23.320;2023-03-20T12:10:55;94764.94;;;21.53;30.21
38400;BME280;24180;42.676;23.320;2023-03-20T12:13:30;94764.25;;;21.26;30.10
38400;BME280;24180;42.676;23.320;2023-03-20T12:16:05;94741.84;;;20.97;30.91
38400;BME280;24180;42.676;23.320;2023-03-20T12:18:53;94725.09;;;20.59;31.45
38400;BME280;24180;42.676;23.320;2023-03-20T12:21:26;94755.09;;;20.44;31.68
38400;BME280;24180;42.676;23.320;2023-03-20T12:24:26;94748.22;;;20.30;32.19
38400;BME280;24180;42.676;23.320;2023-03-20T12:27:16;94748.59;;;20.27;32.67
38400;BME280;24180;42.676;23.320;2023-03-20T12:29:49;94726.75;;;19.94;33.11
38400;BME280;24180;42.676;23.320;2023-03-20T12:35:29;94730.16;;;19.94;32.24
38400;BME280;24180;42.676;23.320;2023-03-20T12:37:56;94711.78;;;19.81;33.08
38400;BME280;24180;42.676;23.320;2023-03-20T12:40:33;94733.41;;;20.03;31.68
38400;BME280;24180;42.676;23.320;2023-03-20T12:43:13;94701.66;;;19.91;32.03
38400;BME280;24180;42.676;23.320;2023-03-20T12:45:46;94723.72;;;20.10;32.16
38400;BME280;24180;42.676;23.320;2023-03-20T12:48:41;94707.94;;;20.03;30.70
38400;BME280;24180;42.676;23.320;2023-03-20T13:00:25;94711.19;;;20.38;30.26
38400;BME280;24180;42.676;23.320;2023-03-20T13:03:08;94693.56;;;20.52;29.36
38400;BME280;24180;42.676;23.320;2023-03-20T13:05:53;94674.13;;;20.46;29.85
38400;BME280;24180;42.676;23.320;2023-03-20T13:21:59;94669.88;;;20.59;29.89
38400;BME280;24180;42.676;23.320;2023-03-20T13:24:43;94650.47;;;20.46;29.12
38400;BME280;24180;42.676;23.320;2023-03-20T13:27:26;94666.63;;;20.63;29.52
38400;BME280;24180;42.676;23.320;2023-03-20T13:38:00;94654.06;;;20.65;29.65
38400;BME280;24180;42.676;23.320;2023-03-20T13:40:34;94648.34;;;20.81;29.08
38400;BME280;24180;42.676;23.320;2023-03-20T13:45:40;94646.22;;;21.03;29.26
38400;BME280;24180;42.676;23.320;2023-03-20T13:51:01;94641.09;;;21.21;29.07
38400;BME280;24180;42.676;23.320;2023-03-20T13:59:17;94640.91;;;21.54;29.36
38400;BME280;24180;42.676;23.320;2023-03-20T14:01:59;94631.50;;;21.65;28.83
38400;BME280;24180;42.676;23.320;2023-03-20T14:04:33;94618.63;;;21.75;28.80
38400;BME280;24180;42.676;23.320;2023-03-20T14:06:59;94627.44;;;21.93;28.08
38400;BME280;24180;42.676;23.320;2023-03-20T14:09:33;94627.81;;;21.97;28.26
38400;BME280;24180;42.676;23.320;2023-03-20T14:12:07;94593.75;;;21.96;27.89
38400;BME280;24180;42.676;23.320;2023-03-20T14:17:21;94619.09;;;21.97;27.46
38400;BME280;24180;42.676;23.320;2023-03-20T14:19:48;94591.25;;;21.76;27.62
38400;BME280;24180;42.676;23.320;2023-03-20T14:22:20;94614.94;;;21.82;26.38
38400;BME280;24180;42.676;23.320;2023-03-20T14:24:53;94579.13;;;21.50;26.81
38400;BME280;24180;42.676;23.320;2023-03-20T14:27:21;94615.88;;;21.63;27.39
38400;BME280;24180;42.676;23.320;2023-03-20T14:29:48;94596.41;;;21.64;27.21
38400;BME280;24180;42.676;23.320;2023-03-20T14:34:51;94577.88;;;21.53;27.43
38400;BME280;24180;42.676;23.320;2023-03-20T14:42:52;94599.38;;;21.50;27.05
38400;BME280;24180;42.676;23.320;2023-03-20T14:50:48;94598.34;;;21.26;27.40
38400;BME280;24180;42.676;23.320;2023-03-20T14:53:17;94595.31;;;21.22;27.47
38400;BME280;24180;42.676;23.320;2023-03-20T14:58:47;94593.56;;;21.03;26.43
38400;BME280;24180;42.676;23.320;2023-03-20T15:06:25;94566.78;;;20.75;26.68
38400;BME280;24180;42.676;23.320;2023-03-20T15:08:55;94592.47;;;20.86;26.61
38400;BME280;24180;42.676;23.320;2023-03-20T15:11:23;94594.16;;;20.67;27.18